sensor_id;sensor_type;location;lat;lon;timestamp;P1;durP1;ratioP1;P2;durP2;ratioP2
3261;SDS011;1643;47.746;9.000;2023-08-31T00:01:53;4.17;;;3.70;;
3261;SDS011;1643;47.746;9.000;2023-08-31T00:04:19;4.20;;;3.80;;
3261;SDS011;1643;47.746;9.000;2023-08-31T00:06:45;3.60;;;3.30;;
3261;SDS011;1643;47.746;9.000;2023-08-31T00:09:12;4.97;;;3.67;;
3261;SDS011;1643;47.746;9.000;2023-08-31T00:11:37;3.10;;;2.90;;
3261;SDS011;1643;47.746;9.000;2023-08-31T00:14:03;3.30;;;3.00;;
3261;SDS011;1643;47.746;9.000;2023-08-31T00:16:29;4.57;;;3.13;;
3261;SDS011;1643;47.746;9.000;2023-08-31T00:18:58;3.70;;;3.00;;
3261;SDS011;1643;47.746;9.000;2023-08-31T00:21:24;3.07;;;2.87;;
3261;SDS011;1643;47.746;9.000;2023-08-31T00:23:50;2.80;;;2.57;;
3261;SDS011;1643;47.746;9.000;2023-08-31T00:26:16;3.43;;;2.93;;
3261;SDS011;1643;47.746;9.000;2023-08-31T00:28:41;3.30;;;3.03;;
3261;SDS011;1643;47.746;9.000;2023-08-31T00:31:09;3.40;;;3.10;;
3261;SDS011;1643;47.746;9.000;2023-08-31T00:33:35;3.00;;;2.80;;
3261;SDS011;1643;47.746;9.000;2023-08-31T00:36:03;3.23;;;3.03;;
3261;SDS011;1643;47.746;9.000;2023-08-31T00:38:31;3.67;;;3.13;;
3261;SDS011;1643;47.746;9.000;2023-08-31T00:40:56;3.87;;;3.47;;
3261;SDS011;1643;47.746;9.000;2023-08-31T00:43:22;3.37;;;3.07;;
3261;SDS011;1643;47.746;9.000;2023-08-31T00:45:49;3.50;;;3.20;;
3261;SDS011;1643;47.746;9.000;2023-08-31T00:48:17;3.00;;;2.80;;
3261;SDS011;1643;47.746;9.000;2023-08-31T00:50:43;6.47;;;3.43;;
3261;SDS011;1643;47.746;9.000;2023-08-31T00:53:10;3.07;;;2.77;;
3261;SDS011;1643;47.746;9.000;2023-08-31T00:55:36;3.30;;;2.43;;
3261;SDS011;1643;47.746;9.000;2023-08-31T00:58:04;2.57;;;2.47;;
3261;SDS011;1643;47.746;9.000;2023-08-31T01:01:19;2.90;;;2.70;;
3261;SDS011;1643;47.746;9.000;2023-08-31T01:09:05;2.73;;;2.50;;
3261;SDS011;1643;47.746;9.000;2023-08-31T01:11:45;3.67;;;3.37;;
3261;SDS011;1643;47.746;9.000;2023-08-31T01:14:23;3.27;;;2.87;;
3261;SDS011;1643;47.746;9.000;2023-08-31T01:16:52;2.60;;;2.40;;
3261;SDS011;1643;47.746;9.000;2023-08-31T01:22:09;3.57;;;2.53;;
3261;SDS011;1643;47.746;9.000;2023-08-31T01:24:39;4.70;;;2.77;;
3261;SDS011;1643;47.746;9.000;2023-08-31T01:27:06;2.87;;;2.60;;
3261;SDS011;1643;47.746;9.000;2023-08-31T01:29:32;2.60;;;2.33;;
3261;SDS011;1643;47.746;9.000;2023-08-31T01:31:58;3.83;;;2.27;;
3261;SDS011;1643;47.746;9.000;2023-08-31T01:34:24;4.00;;;2.57;;
3261;SDS011;1643;47.746;9.000;2023-08-31T01:36:52;2.87;;;2.67;;
3261;SDS011;1643;47.746;9.000;2023-08-31T01:41:53;3.47;;;2.70;;
3261;SDS011;1643;47.746;9.000;2023-08-31T01:44:23;3.40;;;2.40;;
3261;SDS011;1643;47.746;9.000;2023-08-31T01:46:51;2.33;;;2.13;;
3261;SDS011;1643;47.746;9.000;2023-08-31T01:49:21;4.37;;;2.90;;
3261;SDS011;1643;47.746;9.000;2023-08-31T01:51:46;2.87;;;2.67;;
3261;SDS011;1643;47.746;9.000;2023-08-31T01:54:12;4.03;;;3.00;;
3261;SDS011;1643;47.746;9.000;2023-08-31T01:56:38;3.00;;;2.53;;
3261;SDS011;1643;47.746;9.000;2023-08-31T01:59:03;3.00;;;2.77;;
3261;SDS011;1643;47.746;9.000;2023-08-31T02:01:29;3.00;;;2.67;;
3261;SDS011;1643;47.746;9.000;2023-08-31T02:03:57;3.50;;;3.20;;
3261;SDS011;1643;47.746;9.000;2023-08-31T02:06:22;2.77;;;2.57;;
3261;SDS011;1643;47.746;9.000;2023-08-31T02:08:48;2.80;;;2.60;;
3261;SDS011;1643;47.746;9.000;2023-08-31T02:11:14;2.53;;;2.33;;
3261;SDS011;1643;47.746;9.000;2023-08-31T02:13:40;3.17;;;2.37;;
3261;SDS011;1643;47.746;9.000;2023-08-31T02:16:06;2.93;;;2.73;;
3261;SDS011;1643;47.746;9.000;2023-08-31T02:18:32;2.60;;;2.40;;
3261;SDS011;1643;47.746;9.000;2023-08-31T02:20:58;2.70;;;2.50;;
3261;SDS011;1643;47.746;9.000;2023-08-31T02:23:23;3.03;;;2.57;;
3261;SDS011;1643;47.746;9.000;2023-08-31T02:25:49;4.60;;;3.33;;
3261;SDS011;1643;47.746;9.000;2023-08-31T02:28:14;2.40;;;2.20;;
3261;SDS011;1643;47.746;9.000;2023-08-31T02:30:40;3.80;;;2.80;;
3261;SDS011;1643;47.746;9.000;2023-08-31T02:33:08;3.10;;;2.40;;
3261;SDS011;1643;47.746;9.000;2023-08-31T02:35:34;4.63;;;2.87;;
3261;SDS011;1643;47.746;9.000;2023-08-31T02:38:00;3.03;;;2.73;;
3261;SDS011;1643;47.746;9.000;2023-08-31T02:40:25;3.20;;;2.70;;
3261;SDS011;1643;47.746;9.000;2023-08-31T02:42:51;3.87;;;2.50;;
3261;SDS011;1643;47.746;9.000;2023-08-31T02:45:19;3.23;;;2.97;;
3261;SDS011;1643;47.746;9.000;2023-08-31T02:47:45;3.07;;;2.87;;
3261;SDS011;1643;47.746;9.000;2023-08-31T02:50:11;2.87;;;2.63;;
3261;SDS011;1643;47.746;9.000;2023-08-31T02:52:37;3.57;;;2.80;;
3261;SDS011;1643;47.746;9.000;2023-08-31T02:55:03;3.40;;;3.10;;
3261;SDS011;1643;47.746;9.000;2023-08-31T02:57:29;2.90;;;2.70;;
3261;SDS011;1643;47.746;9.000;2023-08-31T02:59:55;3.37;;;2.70;;
3261;SDS011;1643;47.746;9.000;2023-08-31T03:02:21;2.80;;;2.60;;
3261;SDS011;1643;47.746;9.000;2023-08-31T03:04:47;3.23;;;2.93;;
3261;SDS011;1643;47.746;9.000;2023-08-31T03:07:13;2.47;;;2.27;;
3261;SDS011;1643;47.746;9.000;2023-08-31T03:09:40;2.83;;;2.57;;
3261;SDS011;1643;47.746;9.000;2023-08-31T03:12:05;2.93;;;2.63;;
3261;SDS011;1643;47.746;9.000;2023-08-31T03:14:31;2.70;;;2.50;;
3261;SDS011;1643;47.746;9.000;2023-08-31T03:16:57;2.10;;;2.00;;
3261;SDS011;1643;47.746;9.000;2023-08-31T03:19:23;2.60;;;2.40;;
3261;SDS011;1643;47.746;9.000;2023-08-31T03:21:49;2.80;;;2.40;;
3261;SDS011;1643;47.746;9.000;2023-08-31T03:24:15;2.57;;;2.37;;
3261;SDS011;1643;47.746;9.000;2023-08-31T03:26:40;3.17;;;2.87;;
3261;SDS011;1643;47.746;9.000;2023-08-31T03:29:06;3.93;;;2.57;;
3261;SDS011;1643;47.746;9.000;2023-08-31T03:31:33;5.17;;;2.40;;
3261;SDS011;1643;47.746;9.000;2023-08-31T03:33:58;3.43;;;2.37;;
3261;SDS011;1643;47.746;9.000;2023-08-31T03:36:24;2.73;;;2.53;;
3261;SDS011;1643;47.746;9.000;2023-08-31T03:38:49;2.60;;;2.40;;
3261;SDS011;1643;47.746;9.000;2023-08-31T03:41:15;3.10;;;2.33;;
3261;SDS011;1643;47.746;9.000;2023-08-31T03:43:41;2.70;;;2.50;;
3261;SDS011;1643;47.746;9.000;2023-08-31T03:46:06;2.23;;;2.03;;
3261;SDS011;1643;47.746;9.000;2023-08-31T03:48:32;2.77;;;2.57;;
3261;SDS011;1643;47.746;9.000;2023-08-31T03:50:57;5.83;;;2.57;;
3261;SDS011;1643;47.746;9.000;2023-08-31T03:53:23;3.20;;;2.40;;
3261;SDS011;1643;47.746;9.000;2023-08-31T03:55:49;3.77;;;2.53;;
3261;SDS011;1643;47.746;9.000;2023-08-31T03:58:15;2.93;;;2.23;;
3261;SDS011;1643;47.746;9.000;2023-08-31T04:00:40;3.00;;;2.57;;
3261;SDS011;1643;47.746;9.000;2023-08-31T04:03:07;2.70;;;2.50;;
3261;SDS011;1643;47.746;9.000;2023-08-31T04:05:33;2.90;;;2.40;;
3261;SDS011;1643;47.746;9.000;2023-08-31T04:07:59;2.53;;;2.20;;
3261;SDS011;1643;47.746;9.000;2023-08-31T04:10:26;3.90;;;2.77;;
3261;SDS011;1643;47.746;9.000;2023-08-31T04:12:52;9.83;;;3.57;;
3261;SDS011;1643;47.746;9.000;2023-08-31T04:15:17;2.87;;;2.67;;
3261;SDS011;1643;47.746;9.000;2023-08-31T04:17:43;3.40;;;2.63;;
3261;SDS011;1643;47.746;9.000;2023-08-31T04:20:10;3.47;;;2.17;;
3261;SDS011;1643;47.746;9.000;2023-08-31T04:22:36;2.60;;;2.40;;
3261;SDS011;1643;47.746;9.000;2023-08-31T04:25:01;3.07;;;2.73;;
3261;SDS011;1643;47.746;9.000;2023-08-31T04:27:27;4.60;;;2.93;;
3261;SDS011;1643;47.746;9.000;2023-08-31T04:29:56;4.13;;;2.40;;
3261;SDS011;1643;47.746;9.000;2023-08-31T04:32:25;2.50;;;2.30;;
3261;SDS011;1643;47.746;9.000;2023-08-31T04:34:51;2.50;;;2.30;;
3261;SDS011;1643;47.746;9.000;2023-08-31T04:37:17;2.60;;;2.40;;
3261;SDS011;1643;47.746;9.000;2023-08-31T04:39:42;3.50;;;2.87;;
3261;SDS011;1643;47.746;9.000;2023-08-31T04:42:08;2.87;;;2.47;;
3261;SDS011;1643;47.746;9.000;2023-08-31T04:44:34;3.37;;;2.30;;
3261;SDS011;1643;47.746;9.000;2023-08-31T04:47:00;2.87;;;2.67;;
3261;SDS011;1643;47.746;9.000;2023-08-31T04:49:26;2.90;;;2.60;;
3261;SDS011;1643;47.746;9.000;2023-08-31T04:51:52;3.40;;;3.00;;
3261;SDS011;1643;47.746;9.000;2023-08-31T04:54:17;2.67;;;2.40;;
3261;SDS011;1643;47.746;9.000;2023-08-31T04:56:43;2.70;;;2.50;;
3261;SDS011;1643;47.746;9.000;2023-08-31T04:59:09;3.37;;;2.40;;
3261;SDS011;1643;47.746;9.000;2023-08-31T05:01:34;4.60;;;2.83;;
3261;SDS011;1643;47.746;9.000;2023-08-31T05:04:02;3.10;;;2.83;;
3261;SDS011;1643;47.746;9.000;2023-08-31T05:06:28;3.37;;;2.90;;
3261;SDS011;1643;47.746;9.000;2023-08-31T05:08:54;2.90;;;2.70;;
3261;SDS011;1643;47.746;9.000;2023-08-31T05:11:19;2.93;;;2.63;;
3261;SDS011;1643;47.746;9.000;2023-08-31T05:13:45;3.53;;;2.70;;
3261;SDS011;1643;47.746;9.000;2023-08-31T05:16:11;4.07;;;3.27;;
3261;SDS011;1643;47.746;9.000;2023-08-31T05:18:37;3.40;;;3.10;;
3261;SDS011;1643;47.746;9.000;2023-08-31T05:21:03;2.60;;;2.40;;
3261;SDS011;1643;47.746;9.000;2023-08-31T05:23:29;3.57;;;3.00;;
3261;SDS011;1643;47.746;9.000;2023-08-31T05:25:55;4.30;;;3.03;;
3261;SDS011;1643;47.746;9.000;2023-08-31T05:28:23;2.83;;;2.63;;
3261;SDS011;1643;47.746;9.000;2023-08-31T05:30:50;2.37;;;2.17;;
3261;SDS011;1643;47.746;9.000;2023-08-31T05:33:19;2.23;;;2.00;;
3261;SDS011;1643;47.746;9.000;2023-08-31T05:35:47;6.80;;;2.33;;
3261;SDS011;1643;47.746;9.000;2023-08-31T05:38:13;3.03;;;2.67;;
3261;SDS011;1643;47.746;9.000;2023-08-31T05:40:39;2.07;;;1.90;;
3261;SDS011;1643;47.746;9.000;2023-08-31T05:43:06;1.90;;;1.80;;
3261;SDS011;1643;47.746;9.000;2023-08-31T05:45:32;3.03;;;2.10;;
3261;SDS011;1643;47.746;9.000;2023-08-31T05:47:59;1.93;;;1.77;;
3261;SDS011;1643;47.746;9.000;2023-08-31T05:50:25;3.30;;;2.03;;
3261;SDS011;1643;47.746;9.000;2023-08-31T05:52:52;2.00;;;1.80;;
3261;SDS011;1643;47.746;9.000;2023-08-31T05:55:17;2.07;;;1.97;;
3261;SDS011;1643;47.746;9.000;2023-08-31T05:57:43;2.83;;;1.90;;
3261;SDS011;1643;47.746;9.000;2023-08-31T06:00:09;1.83;;;1.73;;
3261;SDS011;1643;47.746;9.000;2023-08-31T06:02:35;1.87;;;1.73;;
3261;SDS011;1643;47.746;9.000;2023-08-31T06:05:01;2.33;;;2.13;;
3261;SDS011;1643;47.746;9.000;2023-08-31T06:07:28;3.40;;;1.80;;
3261;SDS011;1643;47.746;9.000;2023-08-31T06:09:54;2.20;;;1.87;;
3261;SDS011;1643;47.746;9.000;2023-08-31T06:12:20;1.77;;;1.67;;
3261;SDS011;1643;47.746;9.000;2023-08-31T06:14:46;2.07;;;1.90;;
3261;SDS011;1643;47.746;9.000;2023-08-31T06:17:12;1.70;;;1.60;;
3261;SDS011;1643;47.746;9.000;2023-08-31T06:19:38;1.60;;;1.50;;
3261;SDS011;1643;47.746;9.000;2023-08-31T06:22:05;2.10;;;1.50;;
3261;SDS011;1643;47.746;9.000;2023-08-31T06:24:30;2.20;;;2.00;;
3261;SDS011;1643;47.746;9.000;2023-08-31T06:26:57;3.47;;;2.23;;
3261;SDS011;1643;47.746;9.000;2023-08-31T06:29:23;2.63;;;1.70;;
3261;SDS011;1643;47.746;9.000;2023-08-31T06:31:48;2.37;;;1.57;;
3261;SDS011;1643;47.746;9.000;2023-08-31T06:34:14;4.10;;;1.73;;
3261;SDS011;1643;47.746;9.000;2023-08-31T06:36:40;3.47;;;1.90;;
3261;SDS011;1643;47.746;9.000;2023-08-31T06:39:06;2.10;;;1.90;;
3261;SDS011;1643;47.746;9.000;2023-08-31T06:41:32;4.20;;;1.70;;
3261;SDS011;1643;47.746;9.000;2023-08-31T06:43:58;4.37;;;1.90;;
3261;SDS011;1643;47.746;9.000;2023-08-31T06:46:24;3.63;;;1.90;;
3261;SDS011;1643;47.746;9.000;2023-08-31T06:48:50;1.50;;;1.40;;
3261;SDS011;1643;47.746;9.000;2023-08-31T06:51:15;2.90;;;1.87;;
3261;SDS011;1643;47.746;9.000;2023-08-31T06:53:41;5.30;;;2.10;;
3261;SDS011;1643;47.746;9.000;2023-08-31T06:56:08;2.57;;;1.60;;
3261;SDS011;1643;47.746;9.000;2023-08-31T06:58:34;1.63;;;1.53;;
3261;SDS011;1643;47.746;9.000;2023-08-31T07:00:59;1.83;;;1.63;;
3261;SDS011;1643;47.746;9.000;2023-08-31T07:03:26;4.47;;;2.00;;
3261;SDS011;1643;47.746;9.000;2023-08-31T07:05:51;3.20;;;1.73;;
3261;SDS011;1643;47.746;9.000;2023-08-31T07:08:17;2.00;;;1.80;;
3261;SDS011;1643;47.746;9.000;2023-08-31T07:10:43;2.20;;;1.90;;
3261;SDS011;1643;47.746;9.000;2023-08-31T07:13:08;1.50;;;1.40;;
3261;SDS011;1643;47.746;9.000;2023-08-31T07:15:34;2.30;;;1.87;;
3261;SDS011;1643;47.746;9.000;2023-08-31T07:18:00;1.73;;;1.63;;
3261;SDS011;1643;47.746;9.000;2023-08-31T07:20:26;2.40;;;1.80;;
3261;SDS011;1643;47.746;9.000;2023-08-31T07:22:51;2.60;;;1.80;;
3261;SDS011;1643;47.746;9.000;2023-08-31T07:25:17;1.70;;;1.50;;
3261;SDS011;1643;47.746;9.000;2023-08-31T07:27:43;4.07;;;1.80;;
3261;SDS011;1643;47.746;9.000;2023-08-31T07:30:09;1.87;;;1.53;;
3261;SDS011;1643;47.746;9.000;2023-08-31T07:32:35;8.77;;;2.07;;
3261;SDS011;1643;47.746;9.000;2023-08-31T07:35:01;2.83;;;1.70;;
3261;SDS011;1643;47.746;9.000;2023-08-31T07:37:29;3.40;;;1.90;;
3261;SDS011;1643;47.746;9.000;2023-08-31T07:39:55;3.03;;;1.93;;
3261;SDS011;1643;47.746;9.000;2023-08-31T07:42:21;5.73;;;1.70;;
3261;SDS011;1643;47.746;9.000;2023-08-31T07:44:46;3.90;;;1.50;;
3261;SDS011;1643;47.746;9.000;2023-08-31T07:47:12;1.90;;;1.63;;
3261;SDS011;1643;47.746;9.000;2023-08-31T07:49:37;2.13;;;1.63;;
3261;SDS011;1643;47.746;9.000;2023-08-31T07:52:03;2.47;;;1.97;;
3261;SDS011;1643;47.746;9.000;2023-08-31T07:54:29;2.73;;;2.00;;
3261;SDS011;1643;47.746;9.000;2023-08-31T07:56:55;3.70;;;1.80;;
3261;SDS011;1643;47.746;9.000;2023-08-31T07:59:21;1.97;;;1.67;;
3261;SDS011;1643;47.746;9.000;2023-08-31T08:01:47;2.90;;;2.37;;
3261;SDS011;1643;47.746;9.000;2023-08-31T08:04:13;2.70;;;1.90;;
3261;SDS011;1643;47.746;9.000;2023-08-31T08:06:39;3.43;;;2.13;;
3261;SDS011;1643;47.746;9.000;2023-08-31T08:09:05;3.00;;;1.73;;
3261;SDS011;1643;47.746;9.000;2023-08-31T08:11:31;2.83;;;1.80;;
3261;SDS011;1643;47.746;9.000;2023-08-31T08:13:56;3.67;;;1.83;;
3261;SDS011;1643;47.746;9.000;2023-08-31T08:16:22;5.00;;;1.97;;
3261;SDS011;1643;47.746;9.000;2023-08-31T08:18:48;2.07;;;1.87;;
3261;SDS011;1643;47.746;9.000;2023-08-31T08:21:14;1.77;;;1.63;;
3261;SDS011;1643;47.746;9.000;2023-08-31T08:23:40;1.90;;;1.80;;
3261;SDS011;1643;47.746;9.000;2023-08-31T08:26:06;2.00;;;1.60;;
3261;SDS011;1643;47.746;9.000;2023-08-31T08:28:31;1.80;;;1.70;;
3261;SDS011;1643;47.746;9.000;2023-08-31T08:31:00;2.70;;;2.43;;
3261;SDS011;1643;47.746;9.000;2023-08-31T08:33:28;2.60;;;1.80;;
3261;SDS011;1643;47.746;9.000;2023-08-31T08:35:57;2.57;;;1.90;;
3261;SDS011;1643;47.746;9.000;2023-08-31T08:38:25;2.53;;;1.90;;
3261;SDS011;1643;47.746;9.000;2023-08-31T08:40:51;3.90;;;1.80;;
3261;SDS011;1643;47.746;9.000;2023-08-31T08:43:17;1.83;;;1.73;;
3261;SDS011;1643;47.746;9.000;2023-08-31T08:45:50;5.27;;;2.00;;
3261;SDS011;1643;47.746;9.000;2023-08-31T08:48:16;2.20;;;2.00;;
3261;SDS011;1643;47.746;9.000;2023-08-31T08:50:43;4.30;;;1.80;;
3261;SDS011;1643;47.746;9.000;2023-08-31T08:53:10;2.93;;;2.50;;
3261;SDS011;1643;47.746;9.000;2023-08-31T08:55:38;2.20;;;1.87;;
3261;SDS011;1643;47.746;9.000;2023-08-31T08:58:05;3.30;;;2.67;;
3261;SDS011;1643;47.746;9.000;2023-08-31T09:00:31;2.40;;;2.17;;
3261;SDS011;1643;47.746;9.000;2023-08-31T09:02:59;3.00;;;2.17;;
3261;SDS011;1643;47.746;9.000;2023-08-31T09:05:25;2.20;;;2.00;;
3261;SDS011;1643;47.746;9.000;2023-08-31T09:08:09;4.47;;;1.60;;
3261;SDS011;1643;47.746;9.000;2023-08-31T09:10:40;1.80;;;1.70;;
3261;SDS011;1643;47.746;9.000;2023-08-31T09:13:10;4.47;;;2.10;;
3261;SDS011;1643;47.746;9.000;2023-08-31T09:15:40;3.83;;;2.17;;
3261;SDS011;1643;47.746;9.000;2023-08-31T09:18:23;5.50;;;2.50;;
3261;SDS011;1643;47.746;9.000;2023-08-31T09:20:54;2.30;;;2.03;;
3261;SDS011;1643;47.746;9.000;2023-08-31T09:23:21;2.80;;;1.83;;
3261;SDS011;1643;47.746;9.000;2023-08-31T09:25:48;2.60;;;1.90;;
3261;SDS011;1643;47.746;9.000;2023-08-31T09:28:15;2.10;;;1.90;;
3261;SDS011;1643;47.746;9.000;2023-08-31T09:30:44;4.23;;;2.40;;
3261;SDS011;1643;47.746;9.000;2023-08-31T09:33:15;3.60;;;2.20;;
3261;SDS011;1643;47.746;9.000;2023-08-31T09:35:49;5.50;;;1.90;;
3261;SDS011;1643;47.746;9.000;2023-08-31T09:38:16;3.40;;;1.97;;
3261;SDS011;1643;47.746;9.000;2023-08-31T09:40:43;2.93;;;2.20;;
3261;SDS011;1643;47.746;9.000;2023-08-31T09:43:09;2.50;;;1.77;;
3261;SDS011;1643;47.746;9.000;2023-08-31T09:45:34;3.90;;;2.37;;
3261;SDS011;1643;47.746;9.000;2023-08-31T09:48:02;3.57;;;2.00;;
3261;SDS011;1643;47.746;9.000;2023-08-31T09:50:29;1.77;;;1.60;;
3261;SDS011;1643;47.746;9.000;2023-08-31T09:53:01;2.30;;;2.00;;
3261;SDS011;1643;47.746;9.000;2023-08-31T09:55:29;2.70;;;1.70;;
3261;SDS011;1643;47.746;9.000;2023-08-31T09:57:57;5.20;;;2.03;;
3261;SDS011;1643;47.746;9.000;2023-08-31T10:00:25;2.50;;;2.17;;
3261;SDS011;1643;47.746;9.000;2023-08-31T10:02:52;3.97;;;2.00;;
3261;SDS011;1643;47.746;9.000;2023-08-31T10:05:23;3.30;;;2.03;;
3261;SDS011;1643;47.746;9.000;2023-08-31T10:07:50;2.07;;;1.77;;
3261;SDS011;1643;47.746;9.000;2023-08-31T10:10:16;3.53;;;2.10;;
3261;SDS011;1643;47.746;9.000;2023-08-31T10:12:42;2.40;;;1.70;;
3261;SDS011;1643;47.746;9.000;2023-08-31T10:15:11;3.53;;;1.87;;
3261;SDS011;1643;47.746;9.000;2023-08-31T10:17:37;2.60;;;1.97;;
3261;SDS011;1643;47.746;9.000;2023-08-31T10:20:05;4.57;;;2.20;;
3261;SDS011;1643;47.746;9.000;2023-08-31T10:22:33;4.47;;;1.83;;
3261;SDS011;1643;47.746;9.000;2023-08-31T10:25:03;3.67;;;2.10;;
3261;SDS011;1643;47.746;9.000;2023-08-31T10:30:39;1.77;;;1.67;;
3261;SDS011;1643;47.746;9.000;2023-08-31T10:35:52;4.47;;;1.83;;
3261;SDS011;1643;47.746;9.000;2023-08-31T10:41:02;3.90;;;2.07;;
3261;SDS011;1643;47.746;9.000;2023-08-31T10:49:01;2.80;;;2.00;;
3261;SDS011;1643;47.746;9.000;2023-08-31T10:51:39;2.10;;;1.87;;
3261;SDS011;1643;47.746;9.000;2023-08-31T10:59:41;5.17;;;2.60;;
3261;SDS011;1643;47.746;9.000;2023-08-31T11:02:29;8.57;;;2.20;;
3261;SDS011;1643;47.746;9.000;2023-08-31T11:05:16;2.50;;;1.73;;
3261;SDS011;1643;47.746;9.000;2023-08-31T11:07:46;4.07;;;2.30;;
3261;SDS011;1643;47.746;9.000;2023-08-31T11:12:41;2.53;;;2.33;;
3261;SDS011;1643;47.746;9.000;2023-08-31T11:15:14;9.30;;;2.37;;
3261;SDS011;1643;47.746;9.000;2023-08-31T11:17:41;4.93;;;2.37;;
3261;SDS011;1643;47.746;9.000;2023-08-31T11:20:08;4.73;;;2.50;;
3261;SDS011;1643;47.746;9.000;2023-08-31T11:22:39;4.13;;;2.57;;
3261;SDS011;1643;47.746;9.000;2023-08-31T11:25:06;4.03;;;2.27;;
3261;SDS011;1643;47.746;9.000;2023-08-31T11:27:33;4.53;;;2.77;;
3261;SDS011;1643;47.746;9.000;2023-08-31T11:29:59;3.70;;;1.93;;
3261;SDS011;1643;47.746;9.000;2023-08-31T11:32:25;3.43;;;2.00;;
3261;SDS011;1643;47.746;9.000;2023-08-31T11:34:50;3.10;;;1.73;;
3261;SDS011;1643;47.746;9.000;2023-08-31T11:37:16;4.27;;;2.17;;
3261;SDS011;1643;47.746;9.000;2023-08-31T11:39:51;2.30;;;2.10;;
3261;SDS011;1643;47.746;9.000;2023-08-31T11:42:18;3.17;;;1.57;;
3261;SDS011;1643;47.746;9.000;2023-08-31T11:44:48;3.13;;;1.90;;
3261;SDS011;1643;47.746;9.000;2023-08-31T11:47:15;3.00;;;2.20;;
3261;SDS011;1643;47.746;9.000;2023-08-31T11:49:42;2.70;;;2.00;;
3261;SDS011;1643;47.746;9.000;2023-08-31T11:52:11;3.50;;;2.63;;
3261;SDS011;1643;47.746;9.000;2023-08-31T11:54:38;3.03;;;2.00;;
3261;SDS011;1643;47.746;9.000;2023-08-31T11:57:07;4.70;;;2.10;;
3261;SDS011;1643;47.746;9.000;2023-08-31T11:59:37;3.33;;;2.50;;
3261;SDS011;1643;47.746;9.000;2023-08-31T12:02:07;2.30;;;1.53;;
3261;SDS011;1643;47.746;9.000;2023-08-31T12:04:33;4.23;;;1.97;;
3261;SDS011;1643;47.746;9.000;2023-08-31T12:07:08;2.10;;;1.90;;
3261;SDS011;1643;47.746;9.000;2023-08-31T12:09:33;2.27;;;2.07;;
3261;SDS011;1643;47.746;9.000;2023-08-31T12:11:59;2.33;;;1.83;;
3261;SDS011;1643;47.746;9.000;2023-08-31T12:14:29;6.10;;;2.10;;
3261;SDS011;1643;47.746;9.000;2023-08-31T12:17:08;3.23;;;2.10;;
3261;SDS011;1643;47.746;9.000;2023-08-31T12:19:36;4.90;;;2.27;;
3261;SDS011;1643;47.746;9.000;2023-08-31T12:22:02;2.73;;;2.20;;
3261;SDS011;1643;47.746;9.000;2023-08-31T12:24:29;2.97;;;1.97;;
3261;SDS011;1643;47.746;9.000;2023-08-31T12:26:54;6.87;;;2.20;;
3261;SDS011;1643;47.746;9.000;2023-08-31T12:29:21;3.60;;;2.20;;
3261;SDS011;1643;47.746;9.000;2023-08-31T12:31:47;3.50;;;2.40;;
3261;SDS011;1643;47.746;9.000;2023-08-31T12:34:13;3.80;;;2.20;;
3261;SDS011;1643;47.746;9.000;2023-08-31T12:36:38;2.77;;;1.90;;
3261;SDS011;1643;47.746;9.000;2023-08-31T12:39:06;2.47;;;2.20;;
3261;SDS011;1643;47.746;9.000;2023-08-31T12:41:35;2.13;;;1.70;;
3261;SDS011;1643;47.746;9.000;2023-08-31T12:44:10;3.20;;;2.20;;
3261;SDS011;1643;47.746;9.000;2023-08-31T12:46:35;4.73;;;2.50;;
3261;SDS011;1643;47.746;9.000;2023-08-31T12:49:01;4.50;;;2.60;;
3261;SDS011;1643;47.746;9.000;2023-08-31T12:51:29;3.77;;;2.20;;
3261;SDS011;1643;47.746;9.000;2023-08-31T12:53:55;3.13;;;1.90;;
3261;SDS011;1643;47.746;9.000;2023-08-31T12:56:21;4.10;;;2.13;;
3261;SDS011;1643;47.746;9.000;2023-08-31T12:58:51;2.20;;;1.73;;
3261;SDS011;1643;47.746;9.000;2023-08-31T13:01:18;5.50;;;2.10;;
3261;SDS011;1643;47.746;9.000;2023-08-31T13:03:45;2.80;;;1.77;;
3261;SDS011;1643;47.746;9.000;2023-08-31T13:06:12;4.90;;;2.00;;
3261;SDS011;1643;47.746;9.000;2023-08-31T13:08:38;4.90;;;2.13;;
3261;SDS011;1643;47.746;9.000;2023-08-31T13:11:04;5.07;;;2.37;;
3261;SDS011;1643;47.746;9.000;2023-08-31T13:13:30;6.17;;;2.80;;
3261;SDS011;1643;47.746;9.000;2023-08-31T13:15:56;6.30;;;2.67;;
3261;SDS011;1643;47.746;9.000;2023-08-31T13:18:22;6.13;;;1.90;;
3261;SDS011;1643;47.746;9.000;2023-08-31T13:20:51;3.93;;;2.00;;
3261;SDS011;1643;47.746;9.000;2023-08-31T13:23:18;3.73;;;1.83;;
3261;SDS011;1643;47.746;9.000;2023-08-31T13:25:44;3.53;;;1.50;;
3261;SDS011;1643;47.746;9.000;2023-08-31T13:28:10;4.30;;;2.17;;
3261;SDS011;1643;47.746;9.000;2023-08-31T13:30:35;2.83;;;1.87;;
3261;SDS011;1643;47.746;9.000;2023-08-31T13:33:01;3.57;;;2.10;;
3261;SDS011;1643;47.746;9.000;2023-08-31T13:35:29;6.30;;;2.20;;
3261;SDS011;1643;47.746;9.000;2023-08-31T13:37:55;5.47;;;2.30;;
3261;SDS011;1643;47.746;9.000;2023-08-31T13:40:20;2.27;;;2.00;;
3261;SDS011;1643;47.746;9.000;2023-08-31T13:42:59;2.03;;;1.83;;
3261;SDS011;1643;47.746;9.000;2023-08-31T13:45:33;3.10;;;1.90;;
3261;SDS011;1643;47.746;9.000;2023-08-31T13:47:59;3.43;;;2.10;;
3261;SDS011;1643;47.746;9.000;2023-08-31T13:50:25;4.50;;;2.17;;
3261;SDS011;1643;47.746;9.000;2023-08-31T13:52:52;3.17;;;2.20;;
3261;SDS011;1643;47.746;9.000;2023-08-31T13:55:17;6.90;;;2.93;;
3261;SDS011;1643;47.746;9.000;2023-08-31T13:57:43;4.30;;;2.13;;
3261;SDS011;1643;47.746;9.000;2023-08-31T14:00:09;12.07;;;2.40;;
3261;SDS011;1643;47.746;9.000;2023-08-31T14:02:36;3.07;;;1.73;;
3261;SDS011;1643;47.746;9.000;2023-08-31T14:05:02;2.90;;;1.80;;
3261;SDS011;1643;47.746;9.000;2023-08-31T14:07:29;1.83;;;1.73;;
3261;SDS011;1643;47.746;9.000;2023-08-31T14:09:55;3.73;;;1.97;;
3261;SDS011;1643;47.746;9.000;2023-08-31T14:12:20;4.40;;;1.97;;
3261;SDS011;1643;47.746;9.000;2023-08-31T14:14:46;1.97;;;1.77;;
3261;SDS011;1643;47.746;9.000;2023-08-31T14:17:12;2.90;;;2.20;;
3261;SDS011;1643;47.746;9.000;2023-08-31T14:19:38;3.40;;;2.17;;
3261;SDS011;1643;47.746;9.000;2023-08-31T14:22:04;2.47;;;2.10;;
3261;SDS011;1643;47.746;9.000;2023-08-31T14:24:30;2.67;;;2.00;;
3261;SDS011;1643;47.746;9.000;2023-08-31T14:26:55;4.67;;;2.07;;
3261;SDS011;1643;47.746;9.000;2023-08-31T14:29:22;3.13;;;1.97;;
3261;SDS011;1643;47.746;9.000;2023-08-31T14:31:48;5.70;;;2.43;;
3261;SDS011;1643;47.746;9.000;2023-08-31T14:34:14;3.20;;;2.40;;
3261;SDS011;1643;47.746;9.000;2023-08-31T14:36:39;2.70;;;1.80;;
3261;SDS011;1643;47.746;9.000;2023-08-31T14:39:05;2.90;;;2.30;;
3261;SDS011;1643;47.746;9.000;2023-08-31T14:41:31;3.73;;;2.07;;
3261;SDS011;1643;47.746;9.000;2023-08-31T14:43:56;2.10;;;1.90;;
3261;SDS011;1643;47.746;9.000;2023-08-31T14:46:22;6.10;;;2.27;;
3261;SDS011;1643;47.746;9.000;2023-08-31T14:48:49;7.50;;;2.50;;
3261;SDS011;1643;47.746;9.000;2023-08-31T14:51:15;2.73;;;2.20;;
3261;SDS011;1643;47.746;9.000;2023-08-31T14:53:41;2.17;;;1.90;;
3261;SDS011;1643;47.746;9.000;2023-08-31T14:56:07;2.07;;;1.87;;
3261;SDS011;1643;47.746;9.000;2023-08-31T14:58:33;6.43;;;2.30;;
3261;SDS011;1643;47.746;9.000;2023-08-31T15:00:59;4.10;;;2.70;;
3261;SDS011;1643;47.746;9.000;2023-08-31T15:03:24;1.60;;;1.50;;
3261;SDS011;1643;47.746;9.000;2023-08-31T15:05:50;3.80;;;2.40;;
3261;SDS011;1643;47.746;9.000;2023-08-31T15:08:16;1.90;;;1.80;;
3261;SDS011;1643;47.746;9.000;2023-08-31T15:10:41;4.50;;;1.87;;
3261;SDS011;1643;47.746;9.000;2023-08-31T15:13:07;3.60;;;2.23;;
3261;SDS011;1643;47.746;9.000;2023-08-31T15:15:33;6.63;;;2.13;;
3261;SDS011;1643;47.746;9.000;2023-08-31T15:17:59;2.80;;;2.10;;
3261;SDS011;1643;47.746;9.000;2023-08-31T15:20:25;7.17;;;2.43;;
3261;SDS011;1643;47.746;9.000;2023-08-31T15:22:52;3.60;;;2.23;;
3261;SDS011;1643;47.746;9.000;2023-08-31T15:25:18;3.83;;;2.33;;
3261;SDS011;1643;47.746;9.000;2023-08-31T15:27:44;3.23;;;2.87;;
3261;SDS011;1643;47.746;9.000;2023-08-31T15:30:10;4.00;;;2.40;;
3261;SDS011;1643;47.746;9.000;2023-08-31T15:32:36;2.00;;;1.60;;
3261;SDS011;1643;47.746;9.000;2023-08-31T15:35:02;2.90;;;1.87;;
3261;SDS011;1643;47.746;9.000;2023-08-31T15:37:29;4.37;;;2.43;;
3261;SDS011;1643;47.746;9.000;2023-08-31T15:39:55;2.83;;;2.00;;
3261;SDS011;1643;47.746;9.000;2023-08-31T15:42:22;3.50;;;2.20;;
3261;SDS011;1643;47.746;9.000;2023-08-31T15:44:50;2.50;;;2.20;;
3261;SDS011;1643;47.746;9.000;2023-08-31T15:47:17;3.60;;;2.40;;